createdAt,value
2018-04-22T00:01:04.889Z,54.20
2018-04-22T00:03:32.567Z,54.60
2018-04-22T00:05:59.516Z,55.10
2018-04-22T00:08:26.449Z,55.50
2018-04-22T00:10:53.733Z,57.00
2018-04-22T00:13:19.963Z,56.30
2018-04-22T00:15:46.210Z,56.20
2018-04-22T00:18:12.391Z,56.30
2018-04-22T00:20:39.353Z,57.50
2018-04-22T00:23:06.280Z,56.70
2018-04-22T00:25:32.448Z,56.60
2018-04-22T00:27:58.625Z,56.50
2018-04-22T00:30:24.885Z,55.70
2018-04-22T00:32:51.801Z,55.90
2018-04-22T00:35:18.016Z,55.80
2018-04-22T00:37:44.211Z,55.70
2018-04-22T00:40:10.369Z,56.10
2018-04-22T00:42:36.690Z,56.70
2018-04-22T00:45:02.890Z,56.30
2018-04-22T00:47:30.151Z,56.90
2018-04-22T00:49:56.367Z,56.80
2018-04-22T00:52:22.600Z,56.50
2018-04-22T00:54:48.781Z,55.70
2018-04-22T00:57:14.988Z,55.80
2018-04-22T00:59:41.180Z,56.40
2018-04-22T01:02:07.883Z,56.50
2018-04-22T01:04:34.047Z,56.70
2018-04-22T01:07:00.255Z,57.30
2018-04-22T01:09:27.153Z,57.30
2018-04-22T01:11:53.342Z,57.30
2018-04-22T01:14:20.258Z,57.30
2018-04-22T01:16:46.523Z,55.90
2018-04-22T01:19:15.642Z,56.10
2018-04-22T01:21:41.922Z,56.10
2018-04-22T01:24:08.891Z,55.80
2018-04-22T01:26:35.118Z,55.80
2018-04-22T01:29:02.024Z,56.70
2018-04-22T01:31:28.305Z,56.70
2018-04-22T01:33:54.477Z,56.60
2018-04-22T01:36:20.682Z,55.70
2018-04-22T01:38:46.943Z,55.60
2018-04-22T01:41:13.922Z,55.40
2018-04-22T01:43:40.458Z,55.40
2018-04-22T01:46:07.052Z,55.30
2018-04-22T01:48:33.662Z,55.40
2018-04-22T01:51:00.261Z,55.50
2018-04-22T01:53:26.452Z,55.60
2018-04-22T01:55:52.664Z,55.50
2018-04-22T01:58:18.881Z,55.60
2018-04-22T02:00:45.065Z,55.50
2018-04-22T02:03:11.252Z,55.70
2018-04-22T02:05:37.452Z,56.10
2018-04-22T02:08:04.444Z,56.70
2018-04-22T02:10:30.648Z,56.20
2018-04-22T02:12:56.901Z,56.70
2018-04-22T02:15:23.088Z,56.80
2018-04-22T02:17:49.292Z,56.90
2018-04-22T02:20:16.197Z,58.10
2018-04-22T02:22:42.374Z,57.10
2018-04-22T02:25:09.265Z,58.50
2018-04-22T02:27:35.405Z,57.80
2018-04-22T02:30:01.643Z,57.80
2018-04-22T02:32:27.789Z,58.50
2018-04-22T02:34:53.962Z,57.50
2018-04-22T02:37:20.169Z,57.90
2018-04-22T02:39:48.092Z,58.50
2018-04-22T02:42:15.053Z,58.50
2018-04-22T02:44:41.235Z,58.20
2018-04-22T02:47:07.463Z,57.40
2018-04-22T02:49:33.676Z,57.60
2018-04-22T02:52:00.637Z,58.30
2018-04-22T02:54:27.533Z,57.90
2018-04-22T02:56:53.690Z,58.10
2018-04-22T02:59:20.252Z,58.00
2018-04-22T03:01:46.447Z,58.00
2018-04-22T03:04:12.985Z,58.00
2018-04-22T03:06:39.897Z,58.90
2018-04-22T03:09:06.075Z,58.60
2018-04-22T03:11:33.099Z,59.10
2018-04-22T03:14:00.007Z,59.60
2018-04-22T03:16:26.577Z,59.00
2018-04-22T03:18:53.125Z,59.00
2018-04-22T03:21:20.061Z,59.60
2018-04-22T03:23:46.977Z,59.90
2018-04-22T03:26:13.170Z,59.40
2018-04-22T03:28:39.362Z,59.70
2018-04-22T03:31:06.301Z,60.00
2018-04-22T03:33:33.237Z,60.00
2018-04-22T03:35:59.383Z,59.30
2018-04-22T03:38:26.312Z,60.00
2018-04-22T03:40:52.853Z,59.30
2018-04-22T03:43:19.780Z,60.20
2018-04-22T03:45:45.998Z,60.10
2018-04-22T03:48:12.220Z,60.00
2018-04-22T03:50:38.421Z,60.60
2018-04-22T03:53:04.571Z,60.80
2018-04-22T03:55:31.139Z,61.20
2018-04-22T03:57:58.085Z,60.80
2018-04-22T04:00:25.745Z,61.50
2018-04-22T04:02:51.976Z,60.90
2018-04-22T04:05:19.643Z,61.50
2018-04-22T04:07:45.852Z,61.50
2018-04-22T04:10:12.000Z,61.30
2018-04-22T04:12:38.161Z,61.80
2018-04-22T04:15:04.353Z,62.50
2018-04-22T04:17:30.555Z,63.10
2018-04-22T04:20:09.056Z,63.30
2018-04-22T04:22:44.333Z,63.60
2018-04-22T04:25:31.727Z,63.60
2018-04-22T04:27:57.964Z,64.20
2018-04-22T04:30:24.176Z,63.50
2018-04-22T04:32:50.332Z,63.80
2018-04-22T04:35:16.524Z,63.50
2018-04-22T04:37:42.692Z,63.00
2018-04-22T04:40:08.897Z,62.70
2018-04-22T04:42:35.800Z,62.80
2018-04-22T04:45:02.747Z,62.80
2018-04-22T04:47:29.664Z,62.40
2018-04-22T04:49:55.818Z,62.30
2018-04-22T04:52:22.738Z,62.10
2018-04-22T04:54:48.950Z,62.10
2018-04-22T04:57:15.144Z,61.30
2018-04-22T04:59:41.347Z,61.80
2018-04-22T05:02:08.317Z,61.70
2018-04-22T05:04:34.457Z,61.70
2018-04-22T05:07:00.664Z,61.80
2018-04-22T05:09:26.831Z,62.00
2018-04-22T05:11:53.093Z,62.00
2018-04-22T05:14:19.262Z,62.50
2018-04-22T05:16:45.481Z,62.10
2018-04-22T05:19:11.668Z,63.00
2018-04-22T05:21:37.908Z,63.10
2018-04-22T05:24:04.759Z,62.70
2018-04-22T05:26:31.721Z,61.20
2018-04-22T05:28:58.663Z,61.40
2018-04-22T05:31:25.550Z,61.30
2018-04-22T05:33:52.595Z,60.90
2018-04-22T05:36:18.802Z,61.40
2018-04-22T05:38:45.042Z,61.30
2018-04-22T05:41:11.226Z,61.00
2018-04-22T05:43:38.152Z,61.40
2018-04-22T05:46:04.336Z,61.30
2018-04-22T05:48:30.535Z,61.30
2018-04-22T05:50:57.426Z,60.80
2018-04-22T05:53:23.593Z,60.70
2018-04-22T05:55:50.547Z,59.80
2018-04-22T05:58:17.490Z,59.30
2018-04-22T06:00:44.421Z,58.50
2018-04-22T06:03:10.600Z,58.50
2018-04-22T06:05:36.773Z,58.70
2018-04-22T06:08:02.996Z,56.80
2018-04-22T06:10:29.168Z,57.40
2018-04-22T06:12:56.072Z,57.00
2018-04-22T06:15:22.456Z,57.10
2018-04-22T06:17:48.697Z,56.40
2018-04-22T06:20:14.872Z,55.80
2018-04-22T06:22:41.086Z,56.10
2018-04-22T06:25:07.257Z,56.10
2018-04-22T06:27:33.452Z,55.10
2018-04-22T06:29:59.669Z,55.40
2018-04-22T06:32:25.844Z,55.10
2018-04-22T06:34:52.070Z,54.30
2018-04-22T06:37:18.973Z,53.80
2018-04-22T06:39:45.191Z,53.70
2018-04-22T06:42:11.344Z,53.30
2018-04-22T06:44:37.591Z,52.80
2018-04-22T06:47:04.526Z,51.60
2018-04-22T06:49:31.904Z,51.50
2018-04-22T06:51:58.856Z,50.50
2018-04-22T06:54:25.064Z,49.00
2018-04-22T06:56:51.335Z,49.30
2018-04-22T06:59:17.513Z,50.10
2018-04-22T07:01:44.315Z,49.90
2018-04-22T07:04:10.529Z,47.80
2018-04-22T07:06:36.748Z,48.50
2018-04-22T07:09:02.973Z,47.60
2018-04-22T07:11:29.172Z,46.60
2018-04-22T07:13:55.432Z,46.60
2018-04-22T07:16:21.657Z,45.60
2018-04-22T07:18:48.692Z,44.80
2018-04-22T07:21:15.681Z,43.80
2018-04-22T07:23:41.862Z,43.70
2018-04-22T07:26:08.794Z,43.20
2018-04-22T07:28:34.989Z,43.10
2018-04-22T07:31:01.177Z,43.30
2018-04-22T07:33:27.366Z,42.30
2018-04-22T07:35:53.576Z,41.80
2018-04-22T07:38:19.771Z,41.50
2018-04-22T07:40:45.948Z,41.20
2018-04-22T07:43:12.162Z,41.20
2018-04-22T07:45:38.425Z,40.90
2018-04-22T07:48:05.429Z,39.80
2018-04-22T07:50:31.606Z,39.80
2018-04-22T07:52:58.541Z,39.90
2018-04-22T07:55:25.443Z,39.20
2018-04-22T07:58:06.541Z,39.10
2018-04-22T08:00:32.750Z,37.90
2018-04-22T08:02:59.004Z,37.20
2018-04-22T08:05:25.222Z,37.00
2018-04-22T08:07:51.646Z,36.20
2018-04-22T08:10:17.853Z,36.70
2018-04-22T08:12:44.073Z,36.40
2018-04-22T08:15:10.434Z,37.10
2018-04-22T08:17:36.742Z,36.70
2018-04-22T08:20:03.022Z,36.80
2018-04-22T08:22:30.598Z,35.20
2018-04-22T08:24:56.908Z,35.80
2018-04-22T08:27:23.377Z,36.20
2018-04-22T08:29:50.378Z,36.60
2018-04-22T08:32:31.512Z,36.80
2018-04-22T08:34:58.932Z,37.60
2018-04-22T08:37:25.194Z,38.10
2018-04-22T08:39:52.208Z,39.20
2018-04-22T08:42:19.243Z,38.40
2018-04-22T08:44:45.486Z,37.80
2018-04-22T08:47:12.288Z,37.70
2018-04-22T08:49:38.512Z,37.60
2018-04-22T08:52:04.739Z,37.00
2018-04-22T08:54:31.914Z,36.90
2018-04-22T08:56:58.104Z,37.40
2018-04-22T08:59:25.040Z,36.60
2018-04-22T09:01:51.990Z,36.40
2018-04-22T09:04:18.922Z,37.10
2018-04-22T09:06:45.988Z,37.50
2018-04-22T09:09:12.210Z,37.50
2018-04-22T09:11:39.176Z,36.70
2018-04-22T09:14:05.447Z,36.80
2018-04-22T09:16:31.611Z,35.90
2018-04-22T09:18:58.649Z,36.30
2018-04-22T09:21:25.650Z,35.60
2018-04-22T09:23:52.852Z,35.60
2018-04-22T09:26:22.058Z,34.60
2018-04-22T09:28:48.976Z,34.50
2018-04-22T09:31:15.210Z,33.70
2018-04-22T09:33:41.406Z,33.90
2018-04-22T09:36:08.547Z,32.80
2018-04-22T09:38:34.773Z,32.00
2018-04-22T09:41:00.970Z,32.60
2018-04-22T09:43:27.958Z,31.50
2018-04-22T09:45:54.170Z,31.20
2018-04-22T09:48:20.620Z,31.30
2018-04-22T09:50:47.817Z,32.30
2018-04-22T09:53:14.799Z,32.20
2018-04-22T09:55:41.011Z,31.20
2018-04-22T09:58:07.274Z,32.20
2018-04-22T10:00:33.636Z,30.00
2018-04-22T10:03:06.030Z,29.20
2018-04-22T10:05:38.377Z,29.30
2018-04-22T10:08:04.612Z,29.40
2018-04-22T10:10:30.831Z,29.10
2018-04-22T10:12:57.282Z,29.70
2018-04-22T10:15:23.501Z,28.40
2018-04-22T10:17:49.727Z,27.80
2018-04-22T10:20:16.060Z,26.90
2018-04-22T10:22:42.468Z,26.00
2018-04-22T10:25:08.749Z,26.40
2018-04-22T10:27:35.188Z,26.10
2018-04-22T10:30:02.250Z,26.60
2018-04-22T10:32:29.240Z,26.30
2018-04-22T10:34:55.553Z,26.20
2018-04-22T10:37:22.832Z,26.10
2018-04-22T10:39:49.009Z,26.80
2018-04-22T10:42:15.921Z,27.40
2018-04-22T10:44:42.093Z,27.30
2018-04-22T10:47:08.365Z,27.40
2018-04-22T10:49:34.638Z,28.00
2018-04-22T10:52:01.644Z,28.00
2018-04-22T10:54:27.877Z,27.60
2018-04-22T10:56:54.074Z,28.00
2018-04-22T10:59:20.256Z,27.30
2018-04-22T11:01:46.529Z,27.70
2018-04-22T11:04:12.743Z,27.20
2018-04-22T11:06:39.675Z,27.70
2018-04-22T11:09:05.918Z,28.10
2018-04-22T11:11:32.130Z,28.00
2018-04-22T11:13:59.063Z,28.00
2018-04-22T11:16:25.261Z,28.00
2018-04-22T11:18:51.543Z,26.50
2018-04-22T11:21:18.491Z,27.00
2018-04-22T11:23:45.483Z,27.90
2018-04-22T11:26:11.724Z,27.30
2018-04-22T11:28:37.922Z,25.90
2018-04-22T11:31:04.387Z,26.50
2018-04-22T11:33:30.639Z,26.00
2018-04-22T11:35:57.569Z,26.10
2018-04-22T11:38:23.841Z,25.00
2018-04-22T11:40:50.036Z,25.50
2018-04-22T11:43:16.231Z,25.90
2018-04-22T11:45:42.435Z,27.00
2018-04-22T11:48:08.660Z,27.20
2018-04-22T11:50:34.884Z,28.90
2018-04-22T11:53:01.141Z,29.20
2018-04-22T11:55:27.350Z,28.70
2018-04-22T11:57:53.567Z,27.80
2018-04-22T12:00:20.529Z,27.90
2018-04-22T12:02:46.795Z,27.90
2018-04-22T12:05:13.008Z,27.90
2018-04-22T12:07:39.192Z,27.00
2018-04-22T12:10:06.160Z,26.50
2018-04-22T12:12:32.803Z,27.20
2018-04-22T12:14:58.977Z,27.30
2018-04-22T12:17:25.105Z,27.60
2018-04-22T12:19:51.312Z,27.80
2018-04-22T12:22:17.476Z,26.70
2018-04-22T12:24:44.436Z,25.60
2018-04-22T12:27:11.363Z,24.90
2018-04-22T12:29:38.361Z,25.20
2018-04-22T12:32:04.629Z,25.10
2018-04-22T12:34:30.842Z,25.30
2018-04-22T12:36:57.063Z,25.90
2018-04-22T12:39:23.242Z,26.50
2018-04-22T12:41:49.436Z,27.00
2018-04-22T12:44:15.698Z,27.00
2018-04-22T12:46:42.666Z,25.90
2018-04-22T12:49:08.907Z,25.90
2018-04-22T12:51:35.129Z,24.90
2018-04-22T12:54:01.408Z,24.60
2018-04-22T12:56:27.609Z,23.30
2018-04-22T12:58:53.814Z,23.60
2018-04-22T13:01:20.097Z,24.10
2018-04-22T13:03:46.364Z,23.80
2018-04-22T13:06:12.579Z,23.80
2018-04-22T13:08:39.539Z,24.50
2018-04-22T13:11:06.645Z,24.40
2018-04-22T13:13:33.768Z,24.60
2018-04-22T13:16:00.536Z,25.30
2018-04-22T13:18:27.520Z,26.50
2018-04-22T13:20:54.714Z,26.80
2018-04-22T13:23:20.922Z,26.80
2018-04-22T13:25:47.903Z,27.30
2018-04-22T13:28:14.125Z,27.20
2018-04-22T13:30:40.329Z,26.30
2018-04-22T13:33:06.529Z,24.20
2018-04-22T13:35:33.504Z,25.20
2018-04-22T13:37:59.731Z,26.20
2018-04-22T13:40:25.974Z,26.70
2018-04-22T13:42:52.941Z,27.50
2018-04-22T13:45:19.085Z,28.00
2018-04-22T13:47:45.326Z,27.70
2018-04-22T13:50:13.059Z,28.60
2018-04-22T13:52:40.015Z,28.50
2018-04-22T13:55:06.233Z,29.30
2018-04-22T13:57:32.454Z,29.40
2018-04-22T13:59:58.683Z,29.90
2018-04-22T14:02:24.942Z,30.10
2018-04-22T14:04:51.140Z,29.80
2018-04-22T14:07:18.040Z,30.40
2018-04-22T14:09:45.110Z,29.90
2018-04-22T14:12:11.345Z,29.90
2018-04-22T14:14:37.537Z,30.80
2018-04-22T14:17:05.553Z,32.80
2018-04-22T14:19:31.801Z,32.70
2018-04-22T14:21:58.029Z,33.10
2018-04-22T14:24:25.058Z,33.60
2018-04-22T14:26:51.272Z,34.00
2018-04-22T14:29:17.481Z,33.60
2018-04-22T14:31:43.687Z,33.70
2018-04-22T14:34:09.904Z,34.20
2018-04-22T14:36:36.144Z,34.90
2018-04-22T14:39:03.169Z,35.70
2018-04-22T14:41:29.379Z,34.40
2018-04-22T14:44:08.046Z,33.90
2018-04-22T14:46:35.108Z,34.00
2018-04-22T14:49:03.972Z,34.00
2018-04-22T14:51:30.217Z,34.00
2018-04-22T14:53:57.180Z,30.30
2018-04-22T14:56:24.226Z,31.60
2018-04-22T14:58:51.185Z,29.90
2018-04-22T15:01:17.443Z,29.80
2018-04-22T15:03:43.691Z,30.00
2018-04-22T15:06:09.892Z,30.40
2018-04-22T15:08:36.114Z,32.20
2018-04-22T15:11:02.331Z,30.30
2018-04-22T15:13:28.565Z,31.90
2018-04-22T15:15:54.762Z,33.10
2018-04-22T15:18:21.721Z,30.90
2018-04-22T15:20:48.713Z,30.00
2018-04-22T15:23:14.957Z,30.00
2018-04-22T15:25:41.156Z,30.90
2018-04-22T15:28:07.380Z,30.70
2018-04-22T15:30:33.591Z,33.20
2018-04-22T15:33:00.656Z,32.10
2018-04-22T15:35:26.844Z,33.30
2018-04-22T15:37:53.800Z,32.30
2018-04-22T15:40:20.742Z,34.00
2018-04-22T15:42:47.709Z,32.60
2018-04-22T15:45:13.944Z,32.60
2018-04-22T15:47:40.180Z,33.80
2018-04-22T15:50:06.408Z,34.40
2018-04-22T15:52:33.341Z,32.60
2018-04-22T15:55:00.884Z,33.10
2018-04-22T15:57:27.101Z,33.40
2018-04-22T15:59:55.338Z,33.80
2018-04-22T16:02:21.533Z,31.90
2018-04-22T16:04:47.752Z,32.70
2018-04-22T16:07:14.742Z,32.80
2018-04-22T16:09:40.933Z,32.80
2018-04-22T16:12:07.891Z,34.00
2018-04-22T16:14:34.183Z,33.90
2018-04-22T16:17:00.349Z,32.10
2018-04-22T16:19:26.600Z,31.80
2018-04-22T16:21:52.774Z,32.20
2018-04-22T16:24:19.692Z,35.50
2018-04-22T16:26:45.915Z,34.80
2018-04-22T16:29:12.126Z,34.10
2018-04-22T16:31:38.419Z,34.70
2018-04-22T16:34:05.393Z,34.00
2018-04-22T16:36:31.593Z,33.80
2018-04-22T16:38:58.559Z,34.60
2018-04-22T16:41:24.785Z,34.60
2018-04-22T16:43:50.958Z,33.70
2018-04-22T16:46:17.905Z,34.30
2018-04-22T16:48:44.911Z,34.70
2018-04-22T16:51:11.182Z,35.30
2018-04-22T16:53:37.434Z,36.10
2018-04-22T16:56:18.525Z,34.10
2018-04-22T16:58:45.495Z,34.80
2018-04-22T17:01:11.760Z,34.70
2018-04-22T17:03:37.927Z,36.10
2018-04-22T17:06:04.881Z,35.50
2018-04-22T17:08:31.094Z,35.40
2018-04-22T17:10:58.101Z,35.80
2018-04-22T17:13:24.311Z,35.80
2018-04-22T17:15:50.550Z,37.50
2018-04-22T17:18:16.835Z,36.00
2018-04-22T17:20:43.778Z,36.00
2018-04-22T17:23:10.716Z,36.50
2018-04-22T17:25:36.977Z,36.40
2018-04-22T17:28:03.208Z,36.40
2018-04-22T17:30:29.503Z,37.40
2018-04-22T17:32:55.740Z,37.00
2018-04-22T17:35:22.663Z,37.80
2018-04-22T17:37:48.874Z,38.00
2018-04-22T17:40:15.161Z,37.20
2018-04-22T17:42:42.174Z,37.70
2018-04-22T17:45:10.172Z,36.20
2018-04-22T17:47:37.132Z,37.80
2018-04-22T17:50:03.334Z,37.90
2018-04-22T17:52:30.287Z,38.20
2018-04-22T17:54:57.300Z,38.20
2018-04-22T17:57:23.544Z,38.30
2018-04-22T17:59:49.902Z,38.30
2018-04-22T18:02:16.191Z,37.50
2018-04-22T18:04:42.459Z,36.30
2018-04-22T18:07:15.661Z,37.20
2018-04-22T18:09:41.900Z,36.60
2018-04-22T18:12:08.246Z,37.40
2018-04-22T18:14:34.510Z,35.10
2018-04-22T18:17:00.858Z,35.00
2018-04-22T18:19:27.115Z,35.60
2018-04-22T18:21:53.581Z,36.60
2018-04-22T18:24:19.823Z,37.50
2018-04-22T18:26:46.505Z,36.60
2018-04-22T18:29:13.469Z,37.20
2018-04-22T18:31:39.754Z,37.10
2018-04-22T18:34:06.001Z,35.80
2018-04-22T18:36:32.191Z,37.50
2018-04-22T18:38:59.516Z,36.40
2018-04-22T18:41:25.729Z,36.40
2018-04-22T18:43:52.684Z,38.10
2018-04-22T18:46:20.813Z,38.30
2018-04-22T18:48:47.143Z,38.00
2018-04-22T18:51:13.377Z,36.70
2018-04-22T18:53:40.345Z,37.60
2018-04-22T18:56:07.552Z,38.00
2018-04-22T18:58:33.802Z,38.00
2018-04-22T19:01:00.180Z,37.80
2018-04-22T19:03:26.467Z,38.00
2018-04-22T19:05:53.358Z,37.60
2018-04-22T19:08:19.783Z,37.80
2018-04-22T19:10:46.744Z,38.80
2018-04-22T19:13:13.970Z,38.40
2018-04-22T19:15:41.674Z,38.90
2018-04-22T19:18:10.740Z,38.10
2018-04-22T19:20:37.788Z,38.60
2018-04-22T19:23:04.997Z,37.70
2018-04-22T19:25:31.538Z,37.60
2018-04-22T19:27:57.789Z,36.90
2018-04-22T19:30:24.784Z,39.00
2018-04-22T19:32:50.974Z,38.50
2018-04-22T19:35:18.937Z,39.20
2018-04-22T19:37:45.886Z,38.60
2018-04-22T19:40:12.847Z,38.80
2018-04-22T19:42:39.154Z,37.90
2018-04-22T19:45:06.116Z,40.10
2018-04-22T19:47:33.157Z,39.70
2018-04-22T19:50:00.318Z,39.40
2018-04-22T19:52:27.397Z,40.20
2018-04-22T19:54:53.577Z,39.70
2018-04-22T19:57:20.684Z,40.60
2018-04-22T19:59:46.938Z,40.00
2018-04-22T20:02:13.354Z,39.80
2018-04-22T20:04:39.600Z,40.40
2018-04-22T20:07:05.820Z,39.60
2018-04-22T20:09:32.028Z,40.50
2018-04-22T20:11:58.404Z,41.00
2018-04-22T20:14:24.646Z,40.80
2018-04-22T20:16:51.637Z,41.30
2018-04-22T20:19:17.907Z,40.70
2018-04-22T20:21:45.470Z,41.30
2018-04-22T20:24:14.021Z,42.30
2018-04-22T20:26:43.396Z,42.30
2018-04-22T20:29:09.851Z,42.30
2018-04-22T20:31:36.083Z,42.20
2018-04-22T20:34:03.300Z,42.50
2018-04-22T20:36:29.482Z,42.70
2018-04-22T20:38:55.759Z,42.50
2018-04-22T20:41:23.105Z,42.10
2018-04-22T20:43:50.295Z,43.40
2018-04-22T20:46:16.544Z,43.40
2018-04-22T20:48:42.794Z,43.90
2018-04-22T20:51:09.413Z,44.20
2018-04-22T20:53:36.423Z,43.50
2018-04-22T20:56:02.636Z,43.40
2018-04-22T20:58:29.599Z,44.50
2018-04-22T21:00:55.755Z,43.80
2018-04-22T21:03:21.949Z,43.90
2018-04-22T21:05:49.771Z,43.80
2018-04-22T21:08:16.052Z,43.80
2018-04-22T21:10:42.304Z,44.10
2018-04-22T21:13:10.385Z,44.70
2018-04-22T21:15:36.662Z,44.20
2018-04-22T21:18:02.893Z,43.70
2018-04-22T21:20:29.882Z,44.30
2018-04-22T21:22:56.060Z,44.30
2018-04-22T21:25:23.135Z,44.40
2018-04-22T21:27:49.413Z,44.40
2018-04-22T21:30:15.690Z,45.00
2018-04-22T21:32:41.877Z,45.70
2018-04-22T21:35:08.043Z,45.20
2018-04-22T21:37:34.270Z,45.70
2018-04-22T21:40:00.450Z,45.60
2018-04-22T21:42:26.627Z,46.10
2018-04-22T21:44:52.807Z,46.20
2018-04-22T21:47:19.020Z,46.60
2018-04-22T21:49:45.197Z,47.10
2018-04-22T21:52:12.718Z,47.80
2018-04-22T21:54:38.970Z,47.30
2018-04-22T21:57:05.148Z,47.80
2018-04-22T21:59:31.340Z,47.80
2018-04-22T22:01:58.286Z,48.30
2018-04-22T22:04:25.286Z,48.70
2018-04-22T22:06:51.441Z,47.90
2018-04-22T22:09:19.007Z,48.60
2018-04-22T22:11:45.214Z,48.70
2018-04-22T22:14:11.474Z,48.20
2018-04-22T22:16:38.395Z,48.80
2018-04-22T22:19:04.774Z,48.80
2018-04-22T22:21:30.967Z,49.30
2018-04-22T22:23:57.148Z,49.70
2018-04-22T22:26:23.338Z,49.20
2018-04-22T22:28:51.164Z,49.50
2018-04-22T22:31:17.897Z,49.10
2018-04-22T22:33:44.064Z,49.90
2018-04-22T22:36:10.264Z,49.70
2018-04-22T22:38:36.476Z,49.70
2018-04-22T22:41:03.152Z,49.90
2018-04-22T22:43:29.315Z,50.00
2018-04-22T22:45:55.490Z,50.00
2018-04-22T22:48:22.600Z,50.20
2018-04-22T22:50:48.797Z,50.40
2018-04-22T22:53:15.728Z,50.60
2018-04-22T22:55:42.646Z,50.60
2018-04-22T22:58:08.816Z,50.70
2018-04-22T23:00:34.991Z,50.70
2018-04-22T23:03:01.226Z,51.90
2018-04-22T23:05:27.436Z,51.10
2018-04-22T23:07:53.676Z,51.10
2018-04-22T23:10:19.892Z,51.50
2018-04-22T23:12:46.724Z,51.50
2018-04-22T23:15:13.672Z,52.20
2018-04-22T23:17:40.897Z,51.40
2018-04-22T23:20:07.102Z,51.20
2018-04-22T23:22:33.292Z,51.80
2018-04-22T23:24:59.542Z,52.40
2018-04-22T23:27:25.741Z,51.90
2018-04-22T23:29:52.950Z,52.50
2018-04-22T23:32:19.164Z,52.60
2018-04-22T23:34:45.412Z,52.90
2018-04-22T23:37:11.576Z,53.20
2018-04-22T23:39:38.478Z,52.90
2018-04-22T23:42:04.681Z,52.90
2018-04-22T23:44:45.823Z,52.70
2018-04-22T23:49:48.242Z,52.50
2018-04-22T23:52:14.457Z,52.80
2018-04-22T23:54:41.038Z,52.70
2018-04-22T23:57:07.255Z,52.60
2018-04-22T23:59:33.441Z,52.70
